Time;durP1;ratioP1;P1;durP2;ratioP2;P2;SDS_P1;SDS_P2;PMS_P1;PMS_P2;Temp;Humidity;BMP_temperature;BMP_pressure;BME280_temperature;BME280_humidity;BME280_pressure;Samples;Min_cycle;Max_cycle;Signal;HPM_P1;HPM_P2
2021/10/21 00:01:00;;;;;;;5.70;2.30;;;;;;;12.66;100.00;-19496.25;5076262;28;20046;-72
2021/10/21 00:03:26;;;;;;;5.53;2.27;;;;;;;12.69;100.00;-19497.03;5081752;28;20264;-72
2021/10/21 00:05:51;;;;;;;6.03;2.10;;;;;;;12.74;100.00;-19498.22;5076245;28;20036;-72
2021/10/21 00:08:17;;;;;;;6.73;2.87;;;;;;;12.82;100.00;-19500.44;5082436;28;20031;-72
2021/10/21 00:10:45;;;;;;;6.00;2.20;;;;;;;12.89;100.00;-19502.16;5076746;28;20029;-71
2021/10/21 00:13:11;;;;;;;7.27;2.13;;;;;;;12.97;100.00;-19504.13;5081087;28;20569;-72
2021/10/21 00:15:37;;;;;;;4.30;1.80;;;;;;;13.04;100.00;-19505.97;5069484;28;20613;-71
2021/10/21 00:18:03;;;;;;;7.80;1.87;;;;;;;12.94;100.00;-19503.34;5081903;28;20016;-72
2021/10/21 00:20:29;;;;;;;8.77;2.10;;;;;;;12.75;100.00;-19498.63;5075701;28;20028;-72
2021/10/21 00:22:54;;;;;;;4.10;1.60;;;;;;;12.65;100.00;-19496.00;5082103;28;20655;-71
2021/10/21 00:25:20;;;;;;;5.10;1.80;;;;;;;12.56;100.00;-19493.63;5080993;28;20039;-72
2021/10/21 00:27:46;;;;;;;4.03;1.70;;;;;;;12.52;100.00;-19492.56;5077999;28;20032;-72
2021/10/21 00:30:11;;;;;;;5.03;1.53;;;;;;;12.44;100.00;-19490.47;5080043;28;20031;-72
2021/10/21 00:32:37;;;;;;;7.70;1.93;;;;;;;12.46;100.00;-19491.00;5081275;28;20056;-72
2021/10/21 00:35:02;;;;;;;6.87;2.23;;;;;;;12.45;100.00;-19490.75;5077122;28;20027;-73
2021/10/21 00:37:28;;;;;;;4.93;1.50;;;;;;;12.43;100.00;-19490.22;5082744;28;20362;-72
2021/10/21 00:39:53;;;;;;;4.77;1.97;;;;;;;12.41;100.00;-19489.69;5072539;28;20831;-72
2021/10/21 00:42:19;;;;;;;5.67;1.70;;;;;;;12.43;100.00;-19490.22;5080650;28;20476;-72
2021/10/21 00:44:44;;;;;;;4.93;1.90;;;;;;;12.50;100.00;-19492.06;5076082;28;20020;-72
2021/10/21 00:47:10;;;;;;;7.70;1.80;;;;;;;12.46;100.00;-19491.13;5078551;28;20281;-72
2021/10/21 00:49:35;;;;;;;7.73;1.77;;;;;;;12.39;100.00;-19489.28;5077339;28;20051;-73
2021/10/21 00:52:01;;;;;;;5.87;1.93;;;;;;;12.39;100.00;-19168.41;5079886;28;20054;-73
2021/10/21 00:54:27;;;;;;;6.47;1.70;;;;;;;12.40;100.00;-17404.41;5074379;28;20235;-73
2021/10/21 00:56:54;;;;;;;5.67;1.77;;;;;;;12.37;100.00;-13136.97;5076258;28;20035;-73
2021/10/21 00:59:21;;;;;;;7.87;1.93;;;;;;;12.33;100.00;-9427.97;5078902;28;20028;-73
2021/10/21 01:01:46;;;;;;;5.80;1.77;;;;;;;12.30;100.00;-6921.78;5072910;28;20412;-73
2021/10/21 01:04:12;;;;;;;5.87;2.10;;;;;;;12.29;100.00;-4279.22;5073246;28;20048;-73
2021/10/21 01:06:40;;;;;;;7.80;2.67;;;;;;;12.29;100.00;-1939.84;5078071;28;20024;-73
2021/10/21 01:09:06;;;;;;;6.07;2.20;;;;;;;12.32;100.00;-1044.19;5070568;28;20101;-73
2021/10/21 01:11:32;;;;;;;6.20;2.50;;;;;;;12.39;100.00;-20.78;5078276;28;20058;-73
2021/10/21 01:13:57;;;;;;;9.13;3.27;;;;;;;12.46;100.00;-3191.03;5076860;28;20566;-73
2021/10/21 01:16:23;;;;;;;7.43;2.40;;;;;;;12.54;100.00;-6882.41;5081469;28;20270;-73
2021/10/21 01:18:48;;;;;;;9.80;2.60;;;;;;;12.54;100.00;-10491.00;5077812;28;20383;-72
2021/10/21 01:21:14;;;;;;;5.47;2.40;;;;;;;12.54;100.00;-12193.59;5075725;28;20047;-73
2021/10/21 01:23:40;;;;;;;7.00;2.43;;;;;;;12.49;100.00;-15815.56;5077967;28;20030;-73
2021/10/21 01:26:11;;;;;;;7.60;2.27;;;;;;;12.43;100.00;-16341.28;5080230;28;20028;-73
2021/10/21 01:28:38;;;;;;;9.53;2.63;;;;;;;12.36;100.00;-16613.31;5071634;28;20039;-73
2021/10/21 01:31:04;;;;;;;6.33;2.60;;;;;;;12.38;100.00;-14113.09;5077424;28;20016;-73
2021/10/21 01:33:29;;;;;;;8.00;2.70;;;;;;;12.42;100.00;-11200.06;5081663;28;20043;-73
2021/10/21 01:35:55;;;;;;;8.77;4.00;;;;;;;12.51;100.00;-9183.34;5073550;28;20027;-72
2021/10/21 01:38:21;;;;;;;10.63;4.83;;;;;;;12.61;100.00;-10108.50;5073898;28;20033;-72
2021/10/21 01:40:47;;;;;;;12.83;5.03;;;;;;;12.77;100.00;-12879.44;5075451;28;20097;-73
2021/10/21 01:43:15;;;;;;;12.77;5.03;;;;;;;12.96;100.00;-16413.19;5080235;28;20055;-73
2021/10/21 01:45:41;;;;;;;10.00;5.63;;;;;;;13.09;100.00;-19507.28;5078833;28;20032;-73
2021/10/21 01:48:06;;;;;;;10.83;4.67;;;;;;;13.11;100.00;-19507.81;5078001;28;20361;-73
2021/10/21 01:50:32;;;;;;;8.80;4.77;;;;;;;13.07;100.00;-19506.75;5077276;28;20035;-72
2021/10/21 01:52:58;;;;;;;11.13;4.73;;;;;;;13.00;100.00;-19504.91;5077593;28;20190;-72
2021/10/21 01:55:25;;;;;;;9.27;4.60;;;;;;;12.95;100.00;-19503.59;5075495;28;20089;-72
2021/10/21 01:57:51;;;;;;;8.70;4.10;;;;;;;12.90;100.00;-19502.41;5069356;28;20192;-72
2021/10/21 02:00:19;;;;;;;10.53;3.83;;;;;;;12.89;100.00;-19502.28;5077120;28;20535;-72
2021/10/21 02:02:45;;;;;;;9.17;4.20;;;;;;;12.87;100.00;-19501.63;5079164;28;20271;-72
2021/10/21 02:05:12;;;;;;;9.20;4.27;;;;;;;12.84;100.00;-19500.97;5072714;28;20494;-72
2021/10/21 02:07:38;;;;;;;12.03;4.70;;;;;;;12.88;100.00;-19502.03;5077340;28;20276;-72
2021/10/21 02:10:11;;;;;;;8.40;4.23;;;;;;;12.88;100.00;-19502.03;5076790;28;20110;-72
2021/10/21 02:12:36;;;;;;;9.00;4.00;;;;;;;12.85;100.00;-19501.25;5079814;28;20032;-72
2021/10/21 02:15:03;;;;;;;8.60;3.63;;;;;;;12.81;100.00;-19434.97;5079412;28;20104;-72
2021/10/21 02:17:28;;;;;;;9.43;4.60;;;;;;;12.81;100.00;-18606.84;5080220;28;20202;-72
2021/10/21 02:19:54;;;;;;;8.43;3.77;;;;;;;12.81;100.00;-17400.97;5068046;28;20024;-72
2021/10/21 02:22:19;;;;;;;8.67;3.77;;;;;;;12.86;100.00;-16469.47;5077214;28;20408;-72
2021/10/21 02:24:45;;;;;;;8.77;3.83;;;;;;;12.90;100.00;-15894.75;5072848;28;20036;-72
2021/10/21 02:27:11;;;;;;;7.63;3.77;;;;;;;12.98;100.00;-16345.06;5075744;28;20595;-73
2021/10/21 02:29:36;;;;;;;9.43;3.73;;;;;;;12.97;100.00;-16905.09;5067501;28;20047;-73
2021/10/21 02:32:02;;;;;;;6.47;3.10;;;;;;;13.06;100.00;-17305.16;5079354;28;20024;-73
2021/10/21 02:34:28;;;;;;;8.67;3.60;;;;;;;13.32;100.00;-18631.91;5073922;28;20062;-73
2021/10/21 02:36:53;;;;;;;10.87;3.20;;;;;;;13.38;100.00;-19514.88;5079311;28;20246;-73
2021/10/21 02:39:19;;;;;;;6.00;2.97;;;;;;;13.70;100.00;-19523.03;5067334;28;20163;-73
2021/10/21 02:41:44;;;;;;;6.20;2.83;;;;;;;13.63;100.00;-19521.19;5078282;28;20031;-75
2021/10/21 02:44:10;;;;;;;9.40;2.80;;;;;;;13.62;100.00;-19520.91;5077526;28;20408;-75
2021/10/21 02:46:36;;;;;;;5.73;2.40;;;;;;;13.55;100.00;-19519.22;5078860;28;20234;-74
2021/10/21 02:49:02;;;;;;;4.87;2.10;;;;;;;13.56;100.00;-19519.34;5078045;28;20028;-73
2021/10/21 02:51:29;;;;;;;3.70;1.87;;;;;;;13.70;100.00;-19523.03;5074295;28;20027;-71
2021/10/21 02:53:55;;;;;;;4.90;2.37;;;;;;;13.70;100.00;-19523.03;5075334;28;20453;-71
2021/10/21 02:56:20;;;;;;;5.47;2.20;;;;;;;13.63;100.00;-19521.19;5073648;28;20122;-71
2021/10/21 02:58:46;;;;;;;6.20;2.27;;;;;;;13.61;100.00;-19520.66;5077937;28;20085;-71
2021/10/21 03:01:11;;;;;;;4.23;1.97;;;;;;;13.69;100.00;-19522.75;5076622;28;20059;-71
2021/10/21 03:03:37;;;;;;;5.53;1.90;;;;;;;13.89;100.00;-19527.88;5078981;28;20222;-71
2021/10/21 03:06:02;;;;;;;4.77;2.13;;;;;;;13.65;100.00;-19521.72;5074352;28;20126;-72
2021/10/21 03:08:28;;;;;;;2.73;1.33;;;;;;;13.74;100.00;-19524.19;5071113;28;20119;-70
2021/10/21 03:10:53;;;;;;;5.50;1.30;;;;;;;13.46;100.00;-19517.00;5076863;28;20028;-69
2021/10/21 03:13:19;;;;;;;2.40;0.83;;;;;;;13.05;100.00;-19506.22;5078864;28;20514;-70
2021/10/21 03:15:44;;;;;;;2.63;1.03;;;;;;;12.57;100.00;-19494.03;5073736;28;20511;-70
2021/10/21 03:18:10;;;;;;;1.60;0.80;;;;;;;12.42;100.00;-19489.94;5072866;28;20027;-71
2021/10/21 03:20:35;;;;;;;5.67;1.20;;;;;;;12.27;100.00;-19486.28;5068628;28;20036;-71
2021/10/21 03:23:02;;;;;;;3.47;0.90;;;;;;;12.13;100.00;-19482.59;5077503;28;20380;-71
2021/10/21 03:25:28;;;;;;;3.30;1.30;;;;;;;12.25;100.00;-19485.75;5073205;28;20109;-71
2021/10/21 03:27:53;;;;;;;2.33;1.13;;;;;;;12.74;100.00;-19498.34;5074098;28;20055;-71
2021/10/21 03:30:19;;;;;;;3.10;1.00;;;;;;;12.64;100.00;-19495.72;5075070;28;20052;-71
2021/10/21 03:32:45;;;;;;;3.63;1.00;;;;;;;12.65;100.00;-19496.00;5077298;28;20032;-71
2021/10/21 03:35:10;;;;;;;3.67;1.40;;;;;;;12.55;100.00;-19493.38;5073924;28;20442;-70
2021/10/21 03:37:36;;;;;;;5.13;1.10;;;;;;;12.52;100.00;-19492.56;5072684;28;20029;-71
2021/10/21 03:40:03;;;;;;;4.40;1.70;;;;;;;12.49;100.00;-19491.91;5076372;28;20023;-72
2021/10/21 03:42:28;;;;;;;5.23;1.23;;;;;;;12.30;100.00;-19487.06;5077406;28;20452;-71
2021/10/21 03:44:56;;;;;;;3.83;1.50;;;;;;;12.00;100.00;-19479.31;5075606;28;20055;-71
2021/10/21 03:47:22;;;;;;;2.93;0.70;;;;;;;11.60;100.00;-19468.78;5070051;28;20059;-70
2021/10/21 03:49:50;;;;;;;4.83;0.80;;;;;;;11.46;100.00;-19465.25;5071415;28;20052;-70
2021/10/21 03:52:17;;;;;;;2.13;0.67;;;;;;;11.41;100.00;-19464.06;5073011;28;20586;-70
2021/10/21 03:54:43;;;;;;;1.77;0.40;;;;;;;11.30;100.00;-19461.03;5076272;28;20119;-69
2021/10/21 03:57:08;;;;;;;2.63;0.83;;;;;;;11.31;100.00;-19461.44;5077681;28;20380;-70
2021/10/21 03:59:37;;;;;;;0.77;0.57;;;;;;;11.34;100.00;-19462.09;5073305;28;20035;-69
2021/10/21 04:02:03;;;;;;;0.93;0.57;;;;;;;11.20;100.00;-19458.53;5072836;28;20112;-70
2021/10/21 04:04:29;;;;;;;1.90;0.67;;;;;;;11.38;100.00;-19463.28;5070638;28;20044;-69
2021/10/21 04:06:54;;;;;;;2.27;0.77;;;;;;;11.21;100.00;-19458.69;5073583;28;20055;-70
2021/10/21 04:09:20;;;;;;;3.40;0.93;;;;;;;11.17;100.00;-19457.75;5065191;28;20649;-70
2021/10/21 04:11:45;;;;;;;2.93;0.77;;;;;;;11.08;100.00;-19455.53;5075061;28;20032;-70
2021/10/21 04:14:11;;;;;;;5.50;0.60;;;;;;;11.14;100.00;-19457.09;5078191;28;20118;-70
2021/10/21 04:16:36;;;;;;;2.03;0.70;;;;;;;11.17;100.00;-19457.63;5076189;28;20102;-70
2021/10/21 04:19:02;;;;;;;2.20;0.87;;;;;;;11.12;100.00;-19456.56;5071853;28;20055;-71
2021/10/21 04:21:27;;;;;;;4.87;1.00;;;;;;;11.20;100.00;-19458.41;5075228;28;20032;-71
2021/10/21 04:23:55;;;;;;;2.63;1.00;;;;;;;11.35;100.00;-19462.50;5071399;28;20091;-70
2021/10/21 04:26:20;;;;;;;1.70;0.80;;;;;;;11.42;100.00;-19464.19;5075131;28;20062;-70
2021/10/21 04:28:46;;;;;;;2.73;1.23;;;;;;;11.60;100.00;-19468.94;5076402;28;20330;-70
2021/10/21 04:31:11;;;;;;;2.57;0.70;;;;;;;11.54;100.00;-19467.22;5077943;28;20093;-70
2021/10/21 04:33:37;;;;;;;2.10;0.60;;;;;;;11.62;100.00;-19469.44;5081429;28;20062;-70
2021/10/21 04:36:03;;;;;;;1.70;0.63;;;;;;;11.73;100.00;-19472.34;5078756;28;20535;-72
2021/10/21 04:38:28;;;;;;;4.13;1.03;;;;;;;11.76;100.00;-19472.88;5081556;28;20089;-72
2021/10/21 04:40:54;;;;;;;3.47;0.80;;;;;;;11.81;100.00;-19474.19;5081172;28;20028;-72
2021/10/21 04:43:20;;;;;;;1.17;0.60;;;;;;;11.97;100.00;-19478.38;5082283;28;20125;-72
2021/10/21 04:45:48;;;;;;;2.40;0.60;;;;;;;11.91;100.00;-19476.94;5080973;28;20522;-70
2021/10/21 04:48:14;;;;;;;1.50;0.60;;;;;;;11.88;100.00;-19476.03;5080717;28;20542;-72
2021/10/21 04:50:40;;;;;;;1.60;0.83;;;;;;;12.01;100.00;-19479.44;5087205;28;20442;-72
2021/10/21 04:53:05;;;;;;;1.50;0.47;;;;;;;12.08;100.00;-19481.16;5081481;28;20276;-71
2021/10/21 04:55:35;;;;;;;3.57;0.70;;;;;;;12.00;100.00;-19479.19;5081595;28;20109;-70
2021/10/21 04:58:02;;;;;;;0.97;0.50;;;;;;;12.02;100.00;-19479.72;5081841;28;20027;-70
2021/10/21 05:00:28;;;;;;;3.27;0.60;;;;;;;11.96;100.00;-19478.13;5081299;28;20040;-70
2021/10/21 05:02:53;;;;;;;4.17;0.50;;;;;;;11.81;100.00;-19474.19;5081974;28;20385;-69
2021/10/21 05:05:19;;;;;;;2.20;0.60;;;;;;;11.54;100.00;-19467.34;5078015;28;20048;-70
2021/10/21 05:07:44;;;;;;;2.93;0.40;;;;;;;11.54;100.00;-19467.34;5080937;28;20403;-69
2021/10/21 05:10:10;;;;;;;1.70;0.50;;;;;;;11.48;100.00;-19465.63;5074222;28;20032;-70
2021/10/21 05:12:35;;;;;;;0.93;0.43;;;;;;;11.19;100.00;-19458.16;5080949;28;20101;-72
2021/10/21 05:15:01;;;;;;;3.07;0.50;;;;;;;11.21;100.00;-19458.69;5080738;28;20032;-71
2021/10/21 05:17:26;;;;;;;1.27;0.40;;;;;;;11.11;100.00;-19456.31;5077068;28;20028;-72
2021/10/21 05:19:52;;;;;;;3.23;1.00;;;;;;;11.15;100.00;-19457.38;5074889;28;20028;-70
2021/10/21 05:22:18;;;;;;;2.33;0.60;;;;;;;11.03;100.00;-19454.22;5081501;28;20028;-70
2021/10/21 05:24:43;;;;;;;3.10;0.80;;;;;;;10.96;100.00;-19452.22;5071890;28;20029;-71
2021/10/21 05:27:11;;;;;;;2.70;0.93;;;;;;;10.95;100.00;-19452.09;5060956;28;20032;-70
2021/10/21 05:29:37;;;;;;;0.87;0.50;;;;;;;11.06;100.00;-19454.88;5065820;28;20111;-72
2021/10/21 05:32:07;;;;;;;3.90;0.80;;;;;;;11.09;100.00;-19455.78;5080767;28;20106;-70
2021/10/21 05:34:33;;;;;;;1.10;0.60;;;;;;;11.03;100.00;-19454.06;5078124;28;20086;-71
2021/10/21 05:36:59;;;;;;;2.70;0.90;;;;;;;11.03;100.00;-19454.22;5080452;28;20487;-69
2021/10/21 05:39:25;;;;;;;2.23;0.67;;;;;;;11.11;100.00;-19456.31;5077105;28;20369;-70
2021/10/21 05:41:50;;;;;;;2.53;0.60;;;;;;;11.00;100.00;-19453.41;5080501;28;20081;-71
2021/10/21 05:44:16;;;;;;;1.37;0.70;;;;;;;11.08;100.00;-19455.38;5079501;28;20039;-70
2021/10/21 05:46:41;;;;;;;1.90;0.70;;;;;;;10.97;100.00;-19452.63;5073103;28;20028;-71
2021/10/21 05:49:07;;;;;;;4.60;0.80;;;;;;;10.91;100.00;-19451.06;5082004;28;20028;-71
2021/10/21 05:51:32;;;;;;;1.83;0.63;;;;;;;10.88;100.00;-19450.25;5083275;28;20024;-72
2021/10/21 05:53:58;;;;;;;2.17;0.63;;;;;;;10.89;100.00;-19450.38;5080513;28;20024;-71
2021/10/21 05:56:23;;;;;;;1.57;0.90;;;;;;;10.82;100.00;-19448.69;5080550;28;20078;-72
2021/10/21 05:58:49;;;;;;;2.13;0.83;;;;;;;10.81;100.00;-19448.41;5078391;28;20385;-71
2021/10/21 06:01:14;;;;;;;1.77;0.67;;;;;;;10.89;100.00;-19450.53;5076107;28;20032;-71
2021/10/21 06:03:40;;;;;;;2.10;0.87;;;;;;;10.86;100.00;-19449.72;5080461;28;20286;-71
2021/10/21 06:06:06;;;;;;;1.00;0.70;;;;;;;10.84;100.00;-19449.34;5080753;28;20307;-71
2021/10/21 06:08:33;;;;;;;0.93;0.60;;;;;;;10.82;100.00;-19448.81;5080431;28;20052;-70
2021/10/21 06:11:01;;;;;;;3.33;1.07;;;;;;;10.82;100.00;-19448.69;5076115;28;20313;-70
2021/10/21 06:13:26;;;;;;;3.10;0.90;;;;;;;10.79;100.00;-19447.88;5080461;28;20023;-70
2021/10/21 06:15:52;;;;;;;2.20;0.70;;;;;;;10.80;100.00;-19448.28;5076272;28;20031;-71
2021/10/21 06:18:18;;;;;;;2.80;0.70;;;;;;;10.83;100.00;-19448.94;5080575;28;20031;-70
2021/10/21 06:20:43;;;;;;;2.43;0.70;;;;;;;10.79;100.00;-19447.88;5076957;28;20323;-71
2021/10/21 06:23:09;;;;;;;2.83;0.70;;;;;;;10.75;100.00;-19446.84;5079951;28;20047;-69
2021/10/21 06:25:35;;;;;;;11.03;1.27;;;;;;;10.65;100.00;-19444.19;5077543;28;20039;-71
2021/10/21 06:28:00;;;;;;;1.13;0.53;;;;;;;10.38;100.00;-19437.38;5080332;28;20052;-70
2021/10/21 06:30:26;;;;;;;0.40;0.30;;;;;;;10.04;100.00;-19428.41;5077983;28;20396;-71
2021/10/21 06:32:51;;;;;;;1.30;0.40;;;;;;;9.88;100.00;-19424.47;5079503;28;20298;-71
2021/10/21 06:35:17;;;;;;;0.57;0.53;;;;;;;9.82;100.00;-19422.88;5079785;28;20036;-71
2021/10/21 06:37:47;;;;;;;1.67;0.80;;;;;;;9.76;100.00;-19421.28;5080156;28;20647;-71
2021/10/21 06:40:13;;;;;;;0.90;0.50;;;;;;;9.71;100.00;-19419.97;5078946;28;20049;-72
2021/10/21 06:42:39;;;;;;;1.10;0.50;;;;;;;9.64;100.00;-19418.25;5079730;28;20183;-70
2021/10/21 06:45:05;;;;;;;0.40;0.40;;;;;;;9.62;100.00;-19417.59;5079502;28;20024;-71
2021/10/21 06:47:31;;;;;;;0.93;0.50;;;;;;;9.53;100.00;-19415.22;5079758;28;20026;-72
2021/10/21 06:49:56;;;;;;;1.50;0.60;;;;;;;9.51;100.00;-19414.72;5085165;28;20119;-72
2021/10/21 06:52:22;;;;;;;0.67;0.40;;;;;;;9.44;100.00;-19413.00;5079653;28;20479;-72
2021/10/21 06:54:47;;;;;;;0.47;0.43;;;;;;;9.36;100.00;-19410.88;5072618;28;20516;-73
2021/10/21 06:57:13;;;;;;;0.30;0.30;;;;;;;9.27;100.00;-19408.66;5080150;28;20507;-73
2021/10/21 06:59:39;;;;;;;0.50;0.40;;;;;;;9.22;100.00;-19407.34;5073644;28;20093;-73
2021/10/21 07:02:04;;;;;;;0.40;0.40;;;;;;;9.11;100.00;-19404.44;5079822;28;20464;-74
2021/10/21 07:04:30;;;;;;;0.47;0.40;;;;;;;9.03;100.00;-19402.31;5078970;28;20047;-73
2021/10/21 07:06:59;;;;;;;0.77;0.50;;;;;;;9.00;100.00;-19401.53;5079844;28;20016;-73
2021/10/21 07:09:24;;;;;;;1.83;0.80;;;;;;;8.94;100.00;-19399.94;5072917;28;20659;-73
2021/10/21 07:11:50;;;;;;;0.33;0.23;;;;;;;8.92;100.00;-19399.41;5079591;28;20028;-73
2021/10/21 07:14:16;;;;;;;0.93;0.40;;;;;;;8.88;100.00;-19398.50;5079384;28;20295;-74
2021/10/21 07:16:41;;;;;;;2.50;0.50;;;;;;;8.87;100.00;-19398.25;5079874;28;20035;-73
2021/10/21 07:19:07;;;;;;;2.67;0.80;;;;;;;8.87;100.00;-19398.09;5075376;28;20032;-75
2021/10/21 07:21:33;;;;;;;1.27;0.60;;;;;;;8.91;100.00;-19399.16;5078510;28;20262;-74
2021/10/21 07:23:58;;;;;;;0.57;0.43;;;;;;;8.91;100.00;-19399.16;5079409;28;20400;-74
2021/10/21 07:26:24;;;;;;;2.57;0.70;;;;;;;8.91;100.00;-19399.28;5079745;28;20039;-75
2021/10/21 07:28:49;;;;;;;3.47;0.60;;;;;;;8.93;100.00;-19399.69;5077976;28;20028;-74
2021/10/21 07:31:18;;;;;;;0.93;0.50;;;;;;;8.99;100.00;-19401.28;5073774;28;20028;-74
2021/10/21 07:33:43;;;;;;;1.03;0.53;;;;;;;8.97;100.00;-19400.75;5079465;28;20107;-74
2021/10/21 07:36:09;;;;;;;3.03;0.60;;;;;;;9.01;100.00;-19401.78;5079237;28;20588;-74
2021/10/21 07:38:35;;;;;;;1.00;0.50;;;;;;;9.04;100.00;-19402.59;5079295;28;20032;-72
2021/10/21 07:41:00;;;;;;;2.63;0.70;;;;;;;9.09;100.00;-19403.91;5071459;28;20027;-72
2021/10/21 07:43:26;;;;;;;1.53;0.60;;;;;;;9.09;100.00;-19403.91;5078289;28;20488;-72
2021/10/21 07:45:51;;;;;;;4.77;0.70;;;;;;;9.12;100.00;-19404.69;5079114;28;20028;-72
2021/10/21 07:48:17;;;;;;;1.10;0.60;;;;;;;9.10;100.00;-19404.16;5079460;28;20027;-71
2021/10/21 07:50:45;;;;;;;1.60;0.80;;;;;;;9.12;100.00;-19404.69;5083720;28;20487;-71
2021/10/21 07:53:11;;;;;;;1.07;0.50;;;;;;;9.16;100.00;-19405.63;5078942;28;20057;-71
2021/10/21 07:55:37;;;;;;;2.07;0.53;;;;;;;9.21;100.00;-19407.06;5082371;28;20118;-73
2021/10/21 07:58:03;;;;;;;1.63;0.40;;;;;;;9.17;100.00;-19406.00;5079250;28;20063;-71
2021/10/21 08:00:32;;;;;;;0.93;0.40;;;;;;;9.21;100.00;-19407.06;5073330;28;20202;-71
2021/10/21 08:02:59;;;;;;;0.73;0.40;;;;;;;9.23;100.00;-19407.47;5079040;28;20444;-71
2021/10/21 08:05:27;;;;;;;2.27;0.67;;;;;;;9.24;100.00;-19407.84;5073825;28;20063;-71
2021/10/21 08:07:53;;;;;;;0.97;0.50;;;;;;;9.27;100.00;-19408.50;5082340;28;20067;-69
2021/10/21 08:10:19;;;;;;;2.20;1.10;;;;;;;9.27;100.00;-19408.66;5079506;28;20028;-71
2021/10/21 08:12:48;;;;;;;2.23;0.90;;;;;;;9.23;100.00;-19407.59;5076366;28;20088;-72
2021/10/21 08:15:15;;;;;;;1.93;0.63;;;;;;;9.24;100.00;-19407.84;5079765;28;20138;-71
2021/10/21 08:17:43;;;;;;;2.53;0.73;;;;;;;9.23;100.00;-19407.59;5083034;28;20031;-71
2021/10/21 08:20:11;;;;;;;2.50;0.70;;;;;;;9.24;100.00;-19407.84;5082714;28;20393;-70
2021/10/21 08:22:39;;;;;;;3.23;0.60;;;;;;;9.22;100.00;-19407.34;5082652;28;20476;-71
2021/10/21 08:25:05;;;;;;;2.20;0.50;;;;;;;9.25;100.00;-19408.00;5080569;28;20480;-71
2021/10/21 08:27:31;;;;;;;3.07;0.80;;;;;;;9.33;100.00;-19410.22;5082695;28;20110;-72
2021/10/21 08:29:56;;;;;;;1.00;0.60;;;;;;;9.35;100.00;-19410.63;5081803;28;20111;-72
2021/10/21 08:32:21;;;;;;;2.97;0.50;;;;;;;9.36;100.00;-19411.03;5082550;28;20102;-71
2021/10/21 08:34:48;;;;;;;2.90;1.00;;;;;;;9.45;100.00;-19413.25;5082043;28;20097;-70
2021/10/21 08:37:13;;;;;;;3.83;0.60;;;;;;;9.44;100.00;-19413.00;5082133;28;20024;-71
2021/10/21 08:39:39;;;;;;;1.33;0.60;;;;;;;9.56;100.00;-19416.16;5080304;28;20515;-70
2021/10/21 08:42:05;;;;;;;3.20;0.90;;;;;;;9.58;100.00;-19416.69;5082705;28;20028;-72
2021/10/21 08:44:34;;;;;;;2.60;0.70;;;;;;;9.62;100.00;-19417.59;5078751;28;20088;-71
2021/10/21 08:47:00;;;;;;;2.07;0.70;;;;;;;9.64;100.00;-19418.13;5082085;28;20069;-72
2021/10/21 08:49:26;;;;;;;2.97;0.80;;;;;;;9.73;100.00;-19420.50;5081926;28;20032;-71
2021/10/21 08:51:55;;;;;;;2.33;0.80;;;;;;;9.76;100.00;-19421.28;5082375;28;20284;-71
2021/10/21 08:54:25;;;;;;;3.23;0.60;;;;;;;9.75;100.00;-19421.03;5081048;28;20031;-71
2021/10/21 08:56:50;;;;;;;1.70;0.80;;;;;;;9.89;100.00;-19424.72;5081956;28;20028;-71
2021/10/21 08:59:16;;;;;;;2.87;0.80;;;;;;;10.01;100.00;-19427.63;5081501;28;20518;-71
2021/10/21 09:01:48;;;;;;;3.90;0.90;;;;;;;10.07;100.00;-19429.19;5082068;28;20145;-72
2021/10/21 09:10:06;;;;;;;1.67;0.70;;;;;;;10.25;100.00;-19434.06;5081282;28;20544;-71
2021/10/21 09:12:39;;;;;;;4.28;0.90;;;;;;;10.32;100.00;-19435.78;5081268;28;20117;-70
2021/10/21 09:15:09;;;;;;;4.93;0.80;;;;;;;10.40;100.00;-19437.75;5081368;28;20035;-71
2021/10/21 09:17:36;;;;;;;1.37;0.60;;;;;;;10.52;100.00;-19441.03;5080233;28;20238;-71
2021/10/21 09:20:39;;;;;;;3.10;0.63;;;;;;;10.56;100.00;-19442.09;5079342;28;20026;-70
2021/10/21 09:23:16;;;;;;;4.33;0.60;;;;;;;10.67;100.00;-19444.72;5081430;28;20082;-70
2021/10/21 09:25:43;;;;;;;2.93;0.60;;;;;;;10.93;100.00;-19451.56;5080348;28;20062;-71
2021/10/21 09:28:29;;;;;;;1.57;1.00;;;;;;;11.13;100.00;-19456.69;5080871;28;20032;-70
2021/10/21 09:31:08;;;;;;;3.37;0.90;;;;;;;10.88;100.00;-19450.25;5080242;28;20613;-71
2021/10/21 09:33:44;;;;;;;3.97;0.80;;;;;;;10.50;100.00;-19440.38;5080940;28;20228;-71
2021/10/21 09:36:10;;;;;;;4.47;1.33;;;;;;;10.32;100.00;-19435.78;5069963;28;20481;-71
2021/10/21 09:38:46;;;;;;;3.77;0.90;;;;;;;10.18;100.00;-19432.09;5080348;28;20272;-74
2021/10/21 09:41:16;;;;;;;8.63;1.33;;;;;;;10.10;100.00;-19430.13;5071076;28;20107;-74
2021/10/21 09:43:42;;;;;;;6.47;1.23;;;;;;;9.94;100.00;-19426.03;5081782;28;20043;-72
2021/10/21 09:46:40;;;;;;;8.30;1.23;;;;;;;9.94;100.00;-19426.03;5080834;28;20103;-72
2021/10/21 09:49:35;;;;;;;3.67;0.93;;;;;;;9.89;100.00;-19424.72;5079804;28;20040;-70
2021/10/21 09:52:04;;;;;;;4.03;1.13;;;;;;;9.49;100.00;-19414.31;5081522;28;20178;-69
2021/10/21 09:54:30;;;;;;;5.43;1.10;;;;;;;9.47;100.00;-19413.66;5078946;28;20024;-70
2021/10/21 09:57:06;;;;;;;4.93;0.80;;;;;;;9.56;100.00;-19416.16;5080950;28;20042;-68
2021/10/21 09:59:38;;;;;;;3.77;0.97;;;;;;;9.66;100.00;-19418.78;5078370;28;20028;-69
2021/10/21 10:02:20;;;;;;;4.93;0.80;;;;;;;9.68;100.00;-19419.19;5080762;28;20037;-68
2021/10/21 10:04:51;;;;;;;7.00;0.68;;;;;;;9.73;100.00;-19420.50;5080123;28;20681;-69
2021/10/21 10:07:22;;;;;;;2.73;0.40;;;;;;;9.79;100.00;-19422.09;5080667;28;20036;-69
2021/10/21 10:09:48;;;;;;;1.20;0.57;;;;;;;9.88;100.00;-19424.47;5070137;28;20526;-68
2021/10/21 10:12:15;;;;;;;3.60;1.20;;;;;;;9.87;100.00;-19424.19;5077061;28;20124;-69
2021/10/21 10:14:42;;;;;;;2.70;1.10;;;;;;;9.94;100.00;-19426.03;5080105;28;20028;-69
2021/10/21 10:17:09;;;;;;;2.83;1.30;;;;;;;10.13;100.00;-19430.91;5080361;28;20202;-69
2021/10/21 10:19:35;;;;;;;2.50;0.90;;;;;;;10.42;100.00;-19438.41;5071790;28;20043;-70
2021/10/21 10:22:06;;;;;;;1.33;0.30;;;;;;;10.54;100.00;-19441.56;5075415;28;20173;-71
2021/10/21 10:24:33;;;;;;;3.07;0.87;;;;;;;10.47;100.00;-19439.59;5072331;28;20074;-72
2021/10/21 10:27:02;;;;;;;2.10;0.80;;;;;;;10.25;100.00;-19433.94;5076363;28;20412;-71
2021/10/21 10:29:47;;;;;;;1.40;0.50;;;;;;;9.94;100.00;-19426.03;5072279;28;20029;-71
2021/10/21 10:32:31;;;;;;;1.60;0.67;;;;;;;9.85;100.00;-19423.66;5078324;28;20020;-72
2021/10/21 10:35:00;;;;;;;0.70;0.40;;;;;;;9.80;100.00;-19422.34;5079848;28;20080;-72
2021/10/21 10:37:52;;;;;;;0.57;0.40;;;;;;;9.84;100.00;-19423.28;5079389;28;20020;-71
2021/10/21 10:40:35;;;;;;;4.57;0.70;;;;;;;9.98;100.00;-19426.97;5067202;28;20280;-72
2021/10/21 10:43:01;;;;;;;0.60;0.40;;;;;;;9.95;100.00;-19426.31;5079984;28;20121;-71
2021/10/21 10:45:48;;;;;;;4.13;0.63;;;;;;;9.83;100.00;-19423.13;5079410;28;20435;-70
2021/10/21 10:48:16;;;;;;;0.73;0.33;;;;;;;9.71;100.00;-19419.97;5079772;28;20602;-71
2021/10/21 10:51:02;;;;;;;1.17;0.60;;;;;;;9.48;100.00;-19413.91;5078327;28;20032;-70
2021/10/21 10:53:45;;;;;;;0.77;0.30;;;;;;;9.27;100.00;-19408.50;5079599;28;20024;-71
2021/10/21 10:56:42;;;;;;;1.10;0.43;;;;;;;9.13;100.00;-19404.97;5066721;28;20043;-72
2021/10/21 10:59:29;;;;;;;1.07;0.50;;;;;;;9.16;100.00;-19405.75;5075045;28;20670;-74
2021/10/21 11:01:56;;;;;;;1.67;0.40;;;;;;;9.29;100.00;-19409.19;5073212;28;20305;-70
2021/10/21 11:05:13;;;;;;;1.03;0.40;;;;;;;9.47;100.00;-19413.66;5072954;28;20048;-71
2021/10/21 11:07:57;;;;;;;2.10;0.50;;;;;;;9.69;100.00;-19419.44;5032931;28;20047;-72
2021/10/21 11:10:44;;;;;;;0.63;0.50;;;;;;;9.80;100.00;-19422.34;5067582;28;20093;-72
2021/10/21 11:13:37;;;;;;;0.50;0.30;;;;;;;9.58;100.00;-19416.56;5069438;28;20078;-71
2021/10/21 11:16:06;;;;;;;2.20;0.40;;;;;;;9.35;100.00;-19410.75;5068780;28;20122;-72
2021/10/21 11:18:58;;;;;;;0.60;0.40;;;;;;;9.29;100.00;-19409.19;5079188;28;20192;-72
2021/10/21 11:21:53;;;;;;;2.03;0.47;;;;;;;9.27;100.00;-19408.66;5075274;28;20040;-73
2021/10/21 11:25:03;;;;;;;2.80;0.57;;;;;;;9.38;100.00;-19411.53;5073194;28;20052;-73
2021/10/21 11:27:37;;;;;;;1.87;0.80;;;;;;;9.34;100.00;-19410.38;5065130;28;20047;-71
2021/10/21 11:30:24;;;;;;;1.40;0.50;;;;;;;9.29;100.00;-19409.19;5079215;28;20015;-71